Danube Voyager — YP2287 — position and weather

sailwx.info

Track history (hours):
 
Tides and Currents Weather Stations Pressure Air Temp Water Temp Dewpoint Dewpoint Depression Visibility Wind Speed Wind Dir Waves Ship Positions

Danube Voyager

Last reported at 2017-Dec-11 02:00 UTC. Time now 2017-Dec-11 02:19 UTC.
Position N 44°01' E 022°59'.

Length 174 m; draft 0.2 m.

Type: Ship. MMSI: 264162287.

Date/timePositionNaut miles runAvg speedWind from/ knotsBaromVisibWave heightAir tempDewpointWater temp
2017-Dec-11 02:00N 44°01' E 022°59'0 0.0
2017-Dec-11 01:30N 44°01' E 022°59'0 0.0
2017-Dec-11 01:00N 44°01' E 022°59'0 0.0
2017-Dec-11 00:30N 44°01' E 022°59'0 0.0
2017-Dec-11 00:00N 44°01' E 022°59'0 0.0
2017-Dec-10 23:30N 44°01' E 022°59'0 0.0
2017-Dec-10 23:00N 44°01' E 022°59'0 0.0
2017-Dec-10 22:30N 44°01' E 022°59'2 4.7
2017-Dec-10 22:00N 44°00' E 022°56'0 0.7
2017-Dec-10 21:30N 43°60' E 022°56'0 0.0
2017-Dec-10 21:00N 43°60' E 022°56'0 0.0
2017-Dec-10 20:30N 43°60' E 022°56'0 0.0
2017-Dec-10 20:00N 43°60' E 022°56'0 0.0
2017-Dec-10 19:30N 43°60' E 022°56'0 0.0
2017-Dec-10 19:00N 43°60' E 022°56'0 0.0
2017-Dec-10 18:30N 43°60' E 022°56'0 0.0
2017-Dec-10 18:00N 43°60' E 022°56'0 0.0
2017-Dec-10 17:30N 43°60' E 022°56'0 0.0
2017-Dec-10 17:00N 43°60' E 022°56'0 0.0
2017-Dec-10 16:30N 43°60' E 022°56'0 0.0
2017-Dec-10 16:00N 43°60' E 022°56'0 0.3
2017-Dec-10 15:30N 43°60' E 022°56'0 0.0
2017-Dec-10 15:00N 43°60' E 022°56'2 4.7
2017-Dec-10 14:30N 44°00' E 022°59'0 1.0
2017-Dec-10 14:00N 44°01' E 022°59'3 5.4
2017-Dec-10 13:30N 44°02' E 023°02'4 7.1
2017-Dec-10 13:00N 44°06' E 023°00'4 8.6
2017-Dec-10 12:30N 44°07' E 022°54'4 8.7
2017-Dec-10 12:00N 44°09' E 022°49'4 8.8
2017-Dec-10 11:30N 44°12' E 022°45'4 7.5
2017-Dec-10 11:00N 44°14' E 022°41'4 7.0
2017-Dec-10 10:30N 44°17' E 022°39'4 7.2
2017-Dec-10 10:01N 44°19' E 022°34'0 0.5
2017-Dec-10 09:30N 44°19' E 022°34'1 1.1
2017-Dec-10 09:00N 44°19' E 022°33'4 7.2
2017-Dec-10 08:31N 44°22' E 022°31'16 2.4
2017-Dec-10 02:04N 44°34' E 022°45'0 0.1
2017-Dec-10 02:00N 44°34' E 022°45'0 0.0
2017-Dec-10 01:30N 44°34' E 022°45'0 0.0
2017-Dec-10 01:00N 44°34' E 022°45'0 0.0
2017-Dec-10 00:30N 44°34' E 022°45'0 0.0
2017-Dec-10 00:00N 44°34' E 022°45'0 0.0
2017-Dec-09 23:30N 44°34' E 022°45'0 0.0
2017-Dec-09 23:00N 44°34' E 022°45'0 0.0
2017-Dec-09 22:30N 44°34' E 022°45'0 0.0
2017-Dec-09 22:00N 44°34' E 022°45'0 0.0
2017-Dec-09 21:30N 44°34' E 022°45'0 0.0
2017-Dec-09 21:00N 44°34' E 022°45'0 0.0
2017-Dec-09 20:30N 44°34' E 022°45'0 0.0
2017-Dec-09 20:00N 44°34' E 022°45'2 4.9
2017-Dec-09 19:31N 44°36' E 022°43'4 7.3
2017-Dec-09 19:01N 44°37' E 022°38'4 8.8
2017-Dec-09 18:31N 44°39' E 022°33'1 2.5
2017-Dec-09 18:01N 44°40' E 022°32'0 0.4
2017-Dec-09 17:31N 44°40' E 022°31'0 0.0
2017-Dec-09 17:00N 44°40' E 022°31'0 0.9
2017-Dec-09 16:30N 44°40' E 022°31'1 2.7
2017-Dec-09 16:00N 44°42' E 022°30'0 0.2
2017-Dec-09 15:30N 44°41' E 022°30'0 0.0
2017-Dec-09 15:00N 44°41' E 022°30'0 0.0
2017-Dec-09 14:30N 44°41' E 022°30'0 0.0
2017-Dec-09 14:00N 44°41' E 022°30'0 0.0
2017-Dec-09 13:30N 44°41' E 022°30'0 0.0
2017-Dec-09 13:00N 44°41' E 022°30'0 0.0
2017-Dec-09 12:30N 44°42' E 022°30'2 4.4
2017-Dec-09 12:00N 44°43' E 022°27'4 7.3
2017-Dec-09 11:30N 44°41' E 022°23'10 7.3
2017-Dec-09 10:11N 44°34' E 022°14'4 7.8
2017-Dec-09 09:44N 44°30' E 022°12'2 7.6
2017-Dec-09 09:31N 44°29' E 022°11'3 6.6
2017-Dec-09 09:01N 44°29' E 022°06'4 7.2
2017-Dec-09 08:30N 44°32' E 022°03'4 7.2
2017-Dec-09 08:00N 44°35' E 022°02'20 2.5
2017-Dec-09 00:04N 44°44' E 021°37'0 0.1
2017-Dec-08 23:58N 44°44' E 021°37'0 0.0
2017-Dec-08 23:31N 44°44' E 021°37'0 0.0
2017-Dec-08 22:59N 44°44' E 021°37'0 0.0
2017-Dec-08 22:30N 44°44' E 021°37'0 0.0
2017-Dec-08 21:40N 44°44' E 021°37'0 0.0
2017-Dec-08 21:05N 44°44' E 021°37'0 0.0
2017-Dec-08 20:51N 44°44' E 021°37'0 0.0
2017-Dec-08 20:23N 44°44' E 021°37'0 0.0
2017-Dec-08 19:53N 44°44' E 021°37'0 0.0
2017-Dec-08 19:18N 44°44' E 021°37'1 2.4
2017-Dec-08 18:51N 44°45' E 021°36'4 6.0
2017-Dec-08 18:10N 44°46' E 021°30'1 0.3
2017-Dec-08 16:25N 44°46' E 021°31'0 0.0
2017-Dec-08 15:24N 44°46' E 021°31'0 0.2
2017-Dec-08 13:57N 44°46' E 021°31'2 2.3
2017-Dec-08 13:14N 44°47' E 021°28'3 7.2
2017-Dec-08 12:51N 44°46' E 021°24'7 5.4
2017-Dec-08 11:38N 44°48' E 021°15'1 7.5
2017-Dec-08 11:28N 44°47' E 021°14'3 7.7
2017-Dec-08 11:00N 44°45' E 021°10'4 7.4
2017-Dec-08 10:30N 44°43' E 021°05'4 7.6
2017-Dec-08 10:00N 44°43' E 020°60'4 7.6
2017-Dec-08 09:31N 44°41' E 020°56'1 1.0
2017-Dec-08 09:01N 44°40' E 020°55'0 0.1
2017-Dec-08 08:30N 44°40' E 020°55'0 0.6
2017-Dec-08 07:58N 44°40' E 020°55'0 0.7
2017-Dec-08 07:30N 44°40' E 020°55'0 0.0
2017-Dec-07 23:52N 44°40' E 020°55'0 0.0
2017-Dec-07 23:30N 44°40' E 020°55'0 0.0
2017-Dec-07 23:00N 44°40' E 020°55'0 0.0
2017-Dec-07 22:30N 44°40' E 020°55'0 0.0
2017-Dec-07 22:00N 44°40' E 020°55'0 0.0
2017-Dec-07 21:30N 44°40' E 020°55'0 0.0
2017-Dec-07 21:00N 44°40' E 020°55'0 0.0
2017-Dec-07 20:30N 44°40' E 020°55'0 0.0
2017-Dec-07 20:00N 44°40' E 020°55'0 0.0
2017-Dec-07 19:30N 44°40' E 020°55'0 0.0
2017-Dec-07 19:00N 44°40' E 020°55'0 0.0
2017-Dec-07 18:30N 44°40' E 020°55'0 0.0
2017-Dec-07 18:00N 44°40' E 020°55'0 0.0
2017-Dec-07 17:30N 44°40' E 020°55'0 0.0
2017-Dec-07 17:00N 44°40' E 020°55'0 0.0
2017-Dec-07 16:30N 44°40' E 020°55'0 0.0
2017-Dec-07 16:00N 44°40' E 020°55'0 0.0
2017-Dec-07 15:30N 44°40' E 020°55'0 0.0
2017-Dec-07 15:01N 44°40' E 020°55'0 0.0
2017-Dec-07 14:30N 44°40' E 020°55'1 2.1
2017-Dec-07 14:00N 44°41' E 020°56'0 0.2
2017-Dec-07 11:08N 44°41' E 020°57'1 0.2
2017-Dec-07 06:35N 44°41' E 020°56'1 0.1
2017-Dec-06 23:28N 44°40' E 020°55'0 0.0
2017-Dec-06 23:01N 44°40' E 020°55'0 0.0
2017-Dec-06 22:31N 44°40' E 020°55'0 0.0
2017-Dec-06 22:00N 44°40' E 020°55'0 0.0
2017-Dec-06 21:30N 44°40' E 020°55'0 0.0
2017-Dec-06 21:00N 44°40' E 020°55'  
2017-Dec-04 06:57N 44°40' E 020°55'0 0.0
2017-Dec-03 23:27N 44°40' E 020°55'0 0.0
2017-Dec-03 23:00N 44°40' E 020°55'0 0.0
2017-Dec-03 22:30N 44°40' E 020°55'0 0.0
2017-Dec-03 22:00N 44°40' E 020°55'0 0.0
2017-Dec-03 21:30N 44°40' E 020°55'0 0.0
2017-Dec-03 21:00N 44°40' E 020°55'0 0.0
2017-Dec-03 20:30N 44°40' E 020°55'0 0.0
2017-Dec-03 20:00N 44°40' E 020°55'0 0.0
2017-Dec-03 19:30N 44°40' E 020°55'0 0.0
2017-Dec-03 19:00N 44°40' E 020°55'0 0.0
2017-Dec-03 18:30N 44°40' E 020°55'0 0.0
2017-Dec-03 18:00N 44°40' E 020°55'0 0.0
2017-Dec-03 17:30N 44°40' E 020°55'0 0.0
2017-Dec-03 17:00N 44°40' E 020°55'0 0.0
2017-Dec-03 16:30N 44°40' E 020°55'0 0.0
2017-Dec-03 16:00N 44°40' E 020°55'0 0.0
2017-Dec-03 15:30N 44°40' E 020°55'0 0.0
2017-Dec-03 15:00N 44°40' E 020°55'0 0.0
2017-Dec-03 14:30N 44°40' E 020°55'0 0.0
2017-Dec-03 14:00N 44°40' E 020°55'0 0.0
2017-Dec-03 13:30N 44°40' E 020°55'0 0.0
2017-Dec-03 13:00N 44°40' E 020°55'0 0.0
2017-Dec-03 12:30N 44°40' E 020°55'0 0.0
2017-Dec-03 12:00N 44°40' E 020°55'0 0.0
2017-Dec-03 11:30N 44°40' E 020°55'0 0.0
2017-Dec-02 21:48N 44°40' E 020°56'0 0.0
2017-Dec-02 21:31N 44°40' E 020°56'0 0.0
2017-Dec-02 21:00N 44°40' E 020°56'0 0.0
2017-Dec-02 20:30N 44°40' E 020°56'0 0.0
2017-Dec-02 20:00N 44°40' E 020°56'0 0.0
2017-Dec-02 19:30N 44°40' E 020°56'0 0.0
2017-Dec-02 19:01N 44°40' E 020°56'0 0.0
2017-Dec-02 18:30N 44°40' E 020°56'0 0.0
2017-Dec-02 18:01N 44°40' E 020°56'0 0.6
2017-Dec-02 17:30N 44°40' E 020°55'0 0.3
2017-Dec-02 17:00N 44°40' E 020°55'0 0.8
2017-Dec-02 16:30N 44°40' E 020°55'2 3.7
2017-Dec-02 16:00N 44°42' E 020°57'3 5.1
2017-Dec-02 15:30N 44°43' E 021°00'3 5.2
2017-Dec-02 15:00N 44°43' E 021°04'3 5.2
2017-Dec-02 14:25N 44°44' E 021°08'2 5.0
2017-Dec-02 14:00N 44°45' E 021°10'12 4.4
2017-Dec-02 11:18N 44°47' E 021°27'2 5.2
2017-Dec-02 11:00N 44°46' E 021°29'1 2.1
2017-Dec-02 10:26N 44°46' E 021°31'0 0.2
2017-Dec-02 10:00N 44°46' E 021°31'0 0.1
2017-Dec-02 08:58N 44°46' E 021°31'0 0.0
2017-Dec-02 06:10N 44°46' E 021°31'0 0.6
2017-Dec-02 05:52N 44°46' E 021°31'1 3.3
2017-Dec-02 05:30N 44°46' E 021°32'3 5.4
2017-Dec-02 05:00N 44°45' E 021°36'1 2.3
2017-Dec-02 04:31N 44°44' E 021°37'0 0.1
2017-Dec-02 04:00N 44°44' E 021°37'0 0.0
2017-Dec-02 03:23N 44°44' E 021°37'0 0.0
2017-Dec-02 03:00N 44°44' E 021°37'0 0.0
2017-Dec-02 02:30N 44°44' E 021°37'0 0.0
2017-Dec-02 02:00N 44°44' E 021°37'0 0.0
2017-Dec-02 01:30N 44°44' E 021°37'0 0.0
2017-Dec-02 01:00N 44°44' E 021°37'0 0.0
2017-Dec-02 00:23N 44°44' E 021°37'0 0.0
2017-Dec-02 00:00N 44°44' E 021°37'0 0.0
2017-Dec-01 23:23N 44°44' E 021°37'0 0.0
2017-Dec-01 23:00N 44°44' E 021°37'0 0.0
2017-Dec-01 22:23N 44°44' E 021°37'0 0.0
2017-Dec-01 22:00N 44°44' E 021°37'0 0.0
2017-Dec-01 21:23N 44°44' E 021°37'0 0.0
2017-Dec-01 21:00N 44°44' E 021°37'0 0.0
2017-Dec-01 20:30N 44°44' E 021°37'0 0.0
2017-Dec-01 20:00N 44°44' E 021°37'0 0.0
2017-Dec-01 19:30N 44°44' E 021°37'0 0.0
2017-Dec-01 19:00N 44°44' E 021°37'0 0.0
2017-Dec-01 18:30N 44°44' E 021°37'1 1.7
2017-Dec-01 17:59N 44°43' E 021°37'2 4.9
2017-Dec-01 17:30N 44°41' E 021°39'15 4.3
2017-Dec-01 14:01N 44°38' E 021°59'0 4.8
2017-Dec-01 14:00N 44°38' E 021°60'2 5.1
2017-Dec-01 13:31N 44°36' E 022°01'3 5.4
2017-Dec-01 13:00N 44°33' E 022°02'3 5.5
2017-Dec-01 12:31N 44°31' E 022°05'3 5.5
2017-Dec-01 12:01N 44°29' E 022°07'3 5.4
2017-Dec-01 11:31N 44°29' E 022°11'5 5.9
2017-Dec-01 10:42N 44°33' E 022°14'7 5.5
2017-Dec-01 09:22N 44°39' E 022°18'2 5.7
2017-Dec-01 09:01N 44°40' E 022°21'3 5.8
2017-Dec-01 08:30N 44°42' E 022°24'3 5.4
2017-Dec-01 08:01N 44°43' E 022°28'3 6.3
2017-Dec-01 07:31N 44°40' E 022°31'0 0.7
2017-Dec-01 07:01N 44°40' E 022°31'0 0.2
2017-Dec-01 06:31N 44°40' E 022°32'0 0.2
2017-Dec-01 05:59N 44°40' E 022°32'0 0.0
2017-Dec-01 05:30N 44°40' E 022°32'1 1.9
2017-Dec-01 05:01N 44°39' E 022°33'2 4.8
2017-Dec-01 04:31N 44°38' E 022°35'3 5.4
2017-Dec-01 04:01N 44°37' E 022°39'0 0.0
2017-Dec-01 03:31N 44°37' E 022°39'0 0.0
2017-Dec-01 03:01N 44°37' E 022°39'0 0.0
2017-Dec-01 02:25N 44°37' E 022°39'0 0.0
2017-Dec-01 02:01N 44°37' E 022°39'  
Track history (hours):
 
Tides and Currents Weather Stations Pressure Air Temp Water Temp Dewpoint Dewpoint Depression Visibility Wind Speed Wind Dir Waves Ship Positions

Danube Voyager

Last reported at 2017-Dec-11 02:00 UTC. Time now 2017-Dec-11 02:19 UTC.
Position N 44°01' E 022°59'.

Length 174 m; draft 0.2 m.

Type: Ship. MMSI: 264162287.

Date/timePositionNaut miles runAvg speedWind from/ knotsBaromVisibWave heightAir tempDewpointWater temp
2017-Dec-11 02:00N 44°01' E 022°59'0 0.0
2017-Dec-11 01:30N 44°01' E 022°59'0 0.0
2017-Dec-11 01:00N 44°01' E 022°59'0 0.0
2017-Dec-11 00:30N 44°01' E 022°59'0 0.0
2017-Dec-11 00:00N 44°01' E 022°59'0 0.0
2017-Dec-10 23:30N 44°01' E 022°59'0 0.0
2017-Dec-10 23:00N 44°01' E 022°59'0 0.0
2017-Dec-10 22:30N 44°01' E 022°59'2 4.7
2017-Dec-10 22:00N 44°00' E 022°56'0 0.7
2017-Dec-10 21:30N 43°60' E 022°56'0 0.0
2017-Dec-10 21:00N 43°60' E 022°56'0 0.0
2017-Dec-10 20:30N 43°60' E 022°56'0 0.0
2017-Dec-10 20:00N 43°60' E 022°56'0 0.0
2017-Dec-10 19:30N 43°60' E 022°56'0 0.0
2017-Dec-10 19:00N 43°60' E 022°56'0 0.0
2017-Dec-10 18:30N 43°60' E 022°56'0 0.0
2017-Dec-10 18:00N 43°60' E 022°56'0 0.0
2017-Dec-10 17:30N 43°60' E 022°56'0 0.0
2017-Dec-10 17:00N 43°60' E 022°56'0 0.0
2017-Dec-10 16:30N 43°60' E 022°56'0 0.0
2017-Dec-10 16:00N 43°60' E 022°56'0 0.3
2017-Dec-10 15:30N 43°60' E 022°56'0 0.0
2017-Dec-10 15:00N 43°60' E 022°56'2 4.7
2017-Dec-10 14:30N 44°00' E 022°59'0 1.0
2017-Dec-10 14:00N 44°01' E 022°59'3 5.4
2017-Dec-10 13:30N 44°02' E 023°02'4 7.1
2017-Dec-10 13:00N 44°06' E 023°00'4 8.6
2017-Dec-10 12:30N 44°07' E 022°54'4 8.7
2017-Dec-10 12:00N 44°09' E 022°49'4 8.8
2017-Dec-10 11:30N 44°12' E 022°45'4 7.5
2017-Dec-10 11:00N 44°14' E 022°41'4 7.0
2017-Dec-10 10:30N 44°17' E 022°39'4 7.2
2017-Dec-10 10:01N 44°19' E 022°34'0 0.5
2017-Dec-10 09:30N 44°19' E 022°34'1 1.1
2017-Dec-10 09:00N 44°19' E 022°33'4 7.2
2017-Dec-10 08:31N 44°22' E 022°31'16 2.4
2017-Dec-10 02:04N 44°34' E 022°45'0 0.1
2017-Dec-10 02:00N 44°34' E 022°45'0 0.0
2017-Dec-10 01:30N 44°34' E 022°45'0 0.0
2017-Dec-10 01:00N 44°34' E 022°45'0 0.0
2017-Dec-10 00:30N 44°34' E 022°45'0 0.0
2017-Dec-10 00:00N 44°34' E 022°45'0 0.0
2017-Dec-09 23:30N 44°34' E 022°45'0 0.0
2017-Dec-09 23:00N 44°34' E 022°45'0 0.0
2017-Dec-09 22:30N 44°34' E 022°45'0 0.0
2017-Dec-09 22:00N 44°34' E 022°45'0 0.0
2017-Dec-09 21:30N 44°34' E 022°45'0 0.0
2017-Dec-09 21:00N 44°34' E 022°45'0 0.0
2017-Dec-09 20:30N 44°34' E 022°45'0 0.0
2017-Dec-09 20:00N 44°34' E 022°45'2 4.9
2017-Dec-09 19:31N 44°36' E 022°43'4 7.3
2017-Dec-09 19:01N 44°37' E 022°38'4 8.8
2017-Dec-09 18:31N 44°39' E 022°33'1 2.5
2017-Dec-09 18:01N 44°40' E 022°32'0 0.4
2017-Dec-09 17:31N 44°40' E 022°31'0 0.0
2017-Dec-09 17:00N 44°40' E 022°31'0 0.9
2017-Dec-09 16:30N 44°40' E 022°31'1 2.7
2017-Dec-09 16:00N 44°42' E 022°30'0 0.2
2017-Dec-09 15:30N 44°41' E 022°30'0 0.0
2017-Dec-09 15:00N 44°41' E 022°30'0 0.0
2017-Dec-09 14:30N 44°41' E 022°30'0 0.0
2017-Dec-09 14:00N 44°41' E 022°30'0 0.0
2017-Dec-09 13:30N 44°41' E 022°30'0 0.0
2017-Dec-09 13:00N 44°41' E 022°30'0 0.0
2017-Dec-09 12:30N 44°42' E 022°30'2 4.4
2017-Dec-09 12:00N 44°43' E 022°27'4 7.3
2017-Dec-09 11:30N 44°41' E 022°23'10 7.3
2017-Dec-09 10:11N 44°34' E 022°14'4 7.8
2017-Dec-09 09:44N 44°30' E 022°12'2 7.6
2017-Dec-09 09:31N 44°29' E 022°11'3 6.6
2017-Dec-09 09:01N 44°29' E 022°06'4 7.2
2017-Dec-09 08:30N 44°32' E 022°03'4 7.2
2017-Dec-09 08:00N 44°35' E 022°02'20 2.5
2017-Dec-09 00:04N 44°44' E 021°37'0 0.1
2017-Dec-08 23:58N 44°44' E 021°37'0 0.0
2017-Dec-08 23:31N 44°44' E 021°37'0 0.0
2017-Dec-08 22:59N 44°44' E 021°37'0 0.0
2017-Dec-08 22:30N 44°44' E 021°37'0 0.0
2017-Dec-08 21:40N 44°44' E 021°37'0 0.0
2017-Dec-08 21:05N 44°44' E 021°37'0 0.0
2017-Dec-08 20:51N 44°44' E 021°37'0 0.0
2017-Dec-08 20:23N 44°44' E 021°37'0 0.0
2017-Dec-08 19:53N 44°44' E 021°37'0 0.0
2017-Dec-08 19:18N 44°44' E 021°37'1 2.4
2017-Dec-08 18:51N 44°45' E 021°36'4 6.0
2017-Dec-08 18:10N 44°46' E 021°30'1 0.3
2017-Dec-08 16:25N 44°46' E 021°31'0 0.0
2017-Dec-08 15:24N 44°46' E 021°31'0 0.2
2017-Dec-08 13:57N 44°46' E 021°31'2 2.3
2017-Dec-08 13:14N 44°47' E 021°28'3 7.2
2017-Dec-08 12:51N 44°46' E 021°24'7 5.4
2017-Dec-08 11:38N 44°48' E 021°15'1 7.5
2017-Dec-08 11:28N 44°47' E 021°14'3 7.7
2017-Dec-08 11:00N 44°45' E 021°10'4 7.4
2017-Dec-08 10:30N 44°43' E 021°05'4 7.6
2017-Dec-08 10:00N 44°43' E 020°60'4 7.6
2017-Dec-08 09:31N 44°41' E 020°56'1 1.0
2017-Dec-08 09:01N 44°40' E 020°55'0 0.1
2017-Dec-08 08:30N 44°40' E 020°55'0 0.6
2017-Dec-08 07:58N 44°40' E 020°55'0 0.7
2017-Dec-08 07:30N 44°40' E 020°55'0 0.0
2017-Dec-07 23:52N 44°40' E 020°55'0 0.0
2017-Dec-07 23:30N 44°40' E 020°55'0 0.0
2017-Dec-07 23:00N 44°40' E 020°55'0 0.0
2017-Dec-07 22:30N 44°40' E 020°55'0 0.0
2017-Dec-07 22:00N 44°40' E 020°55'0 0.0
2017-Dec-07 21:30N 44°40' E 020°55'0 0.0
2017-Dec-07 21:00N 44°40' E 020°55'0 0.0
2017-Dec-07 20:30N 44°40' E 020°55'0 0.0
2017-Dec-07 20:00N 44°40' E 020°55'0 0.0
2017-Dec-07 19:30N 44°40' E 020°55'0 0.0
2017-Dec-07 19:00N 44°40' E 020°55'0 0.0
2017-Dec-07 18:30N 44°40' E 020°55'0 0.0
2017-Dec-07 18:00N 44°40' E 020°55'0 0.0
2017-Dec-07 17:30N 44°40' E 020°55'0 0.0
2017-Dec-07 17:00N 44°40' E 020°55'0 0.0
2017-Dec-07 16:30N 44°40' E 020°55'0 0.0
2017-Dec-07 16:00N 44°40' E 020°55'0 0.0
2017-Dec-07 15:30N 44°40' E 020°55'0 0.0
2017-Dec-07 15:01N 44°40' E 020°55'0 0.0
2017-Dec-07 14:30N 44°40' E 020°55'1 2.1
2017-Dec-07 14:00N 44°41' E 020°56'0 0.2
2017-Dec-07 11:08N 44°41' E 020°57'1 0.2
2017-Dec-07 06:35N 44°41' E 020°56'1 0.1
2017-Dec-06 23:28N 44°40' E 020°55'0 0.0
2017-Dec-06 23:01N 44°40' E 020°55'0 0.0
2017-Dec-06 22:31N 44°40' E 020°55'0 0.0
2017-Dec-06 22:00N 44°40' E 020°55'0 0.0
2017-Dec-06 21:30N 44°40' E 020°55'0 0.0
2017-Dec-06 21:00N 44°40' E 020°55'  
2017-Dec-04 06:57N 44°40' E 020°55'0 0.0
2017-Dec-03 23:27N 44°40' E 020°55'0 0.0
2017-Dec-03 23:00N 44°40' E 020°55'0 0.0
2017-Dec-03 22:30N 44°40' E 020°55'0 0.0
2017-Dec-03 22:00N 44°40' E 020°55'0 0.0
2017-Dec-03 21:30N 44°40' E 020°55'0 0.0
2017-Dec-03 21:00N 44°40' E 020°55'0 0.0
2017-Dec-03 20:30N 44°40' E 020°55'0 0.0
2017-Dec-03 20:00N 44°40' E 020°55'0 0.0
2017-Dec-03 19:30N 44°40' E 020°55'0 0.0
2017-Dec-03 19:00N 44°40' E 020°55'0 0.0
2017-Dec-03 18:30N 44°40' E 020°55'0 0.0
2017-Dec-03 18:00N 44°40' E 020°55'0 0.0
2017-Dec-03 17:30N 44°40' E 020°55'0 0.0
2017-Dec-03 17:00N 44°40' E 020°55'0 0.0
2017-Dec-03 16:30N 44°40' E 020°55'0 0.0
2017-Dec-03 16:00N 44°40' E 020°55'0 0.0
2017-Dec-03 15:30N 44°40' E 020°55'0 0.0
2017-Dec-03 15:00N 44°40' E 020°55'0 0.0
2017-Dec-03 14:30N 44°40' E 020°55'0 0.0
2017-Dec-03 14:00N 44°40' E 020°55'0 0.0
2017-Dec-03 13:30N 44°40' E 020°55'0 0.0
2017-Dec-03 13:00N 44°40' E 020°55'0 0.0
2017-Dec-03 12:30N 44°40' E 020°55'0 0.0
2017-Dec-03 12:00N 44°40' E 020°55'0 0.0
2017-Dec-03 11:30N 44°40' E 020°55'0 0.0
2017-Dec-02 21:48N 44°40' E 020°56'0 0.0
2017-Dec-02 21:31N 44°40' E 020°56'0 0.0
2017-Dec-02 21:00N 44°40' E 020°56'0 0.0
2017-Dec-02 20:30N 44°40' E 020°56'0 0.0
2017-Dec-02 20:00N 44°40' E 020°56'0 0.0
2017-Dec-02 19:30N 44°40' E 020°56'0 0.0
2017-Dec-02 19:01N 44°40' E 020°56'0 0.0
2017-Dec-02 18:30N 44°40' E 020°56'0 0.0
2017-Dec-02 18:01N 44°40' E 020°56'0 0.6
2017-Dec-02 17:30N 44°40' E 020°55'0 0.3
2017-Dec-02 17:00N 44°40' E 020°55'0 0.8
2017-Dec-02 16:30N 44°40' E 020°55'2 3.7
2017-Dec-02 16:00N 44°42' E 020°57'3 5.1
2017-Dec-02 15:30N 44°43' E 021°00'3 5.2
2017-Dec-02 15:00N 44°43' E 021°04'3 5.2
2017-Dec-02 14:25N 44°44' E 021°08'2 5.0
2017-Dec-02 14:00N 44°45' E 021°10'12 4.4
2017-Dec-02 11:18N 44°47' E 021°27'2 5.2
2017-Dec-02 11:00N 44°46' E 021°29'1 2.1
2017-Dec-02 10:26N 44°46' E 021°31'0 0.2
2017-Dec-02 10:00N 44°46' E 021°31'0 0.1
2017-Dec-02 08:58N 44°46' E 021°31'0 0.0
2017-Dec-02 06:10N 44°46' E 021°31'0 0.6
2017-Dec-02 05:52N 44°46' E 021°31'1 3.3
2017-Dec-02 05:30N 44°46' E 021°32'3 5.4
2017-Dec-02 05:00N 44°45' E 021°36'1 2.3
2017-Dec-02 04:31N 44°44' E 021°37'0 0.1
2017-Dec-02 04:00N 44°44' E 021°37'0 0.0
2017-Dec-02 03:23N 44°44' E 021°37'0 0.0
2017-Dec-02 03:00N 44°44' E 021°37'0 0.0
2017-Dec-02 02:30N 44°44' E 021°37'0 0.0
2017-Dec-02 02:00N 44°44' E 021°37'0 0.0
2017-Dec-02 01:30N 44°44' E 021°37'0 0.0
2017-Dec-02 01:00N 44°44' E 021°37'0 0.0
2017-Dec-02 00:23N 44°44' E 021°37'0 0.0
2017-Dec-02 00:00N 44°44' E 021°37'0 0.0
2017-Dec-01 23:23N 44°44' E 021°37'0 0.0
2017-Dec-01 23:00N 44°44' E 021°37'0 0.0
2017-Dec-01 22:23N 44°44' E 021°37'0 0.0
2017-Dec-01 22:00N 44°44' E 021°37'0 0.0
2017-Dec-01 21:23N 44°44' E 021°37'0 0.0
2017-Dec-01 21:00N 44°44' E 021°37'0 0.0
2017-Dec-01 20:30N 44°44' E 021°37'0 0.0
2017-Dec-01 20:00N 44°44' E 021°37'0 0.0
2017-Dec-01 19:30N 44°44' E 021°37'0 0.0
2017-Dec-01 19:00N 44°44' E 021°37'0 0.0
2017-Dec-01 18:30N 44°44' E 021°37'1 1.7
2017-Dec-01 17:59N 44°43' E 021°37'2 4.9
2017-Dec-01 17:30N 44°41' E 021°39'15 4.3
2017-Dec-01 14:01N 44°38' E 021°59'0 4.8
2017-Dec-01 14:00N 44°38' E 021°60'2 5.1
2017-Dec-01 13:31N 44°36' E 022°01'3 5.4
2017-Dec-01 13:00N 44°33' E 022°02'3 5.5
2017-Dec-01 12:31N 44°31' E 022°05'3 5.5
2017-Dec-01 12:01N 44°29' E 022°07'3 5.4
2017-Dec-01 11:31N 44°29' E 022°11'5 5.9
2017-Dec-01 10:42N 44°33' E 022°14'7 5.5
2017-Dec-01 09:22N 44°39' E 022°18'2 5.7
2017-Dec-01 09:01N 44°40' E 022°21'3 5.8
2017-Dec-01 08:30N 44°42' E 022°24'3 5.4
2017-Dec-01 08:01N 44°43' E 022°28'3 6.3
2017-Dec-01 07:31N 44°40' E 022°31'0 0.7
2017-Dec-01 07:01N 44°40' E 022°31'0 0.2
2017-Dec-01 06:31N 44°40' E 022°32'0 0.2
2017-Dec-01 05:59N 44°40' E 022°32'0 0.0
2017-Dec-01 05:30N 44°40' E 022°32'1 1.9
2017-Dec-01 05:01N 44°39' E 022°33'2 4.8
2017-Dec-01 04:31N 44°38' E 022°35'3 5.4
2017-Dec-01 04:01N 44°37' E 022°39'0 0.0
2017-Dec-01 03:31N 44°37' E 022°39'0 0.0
2017-Dec-01 03:01N 44°37' E 022°39'0 0.0
2017-Dec-01 02:25N 44°37' E 022°39'0 0.0
2017-Dec-01 02:01N 44°37' E 022°39'  

Dump ship's entire track history